Ana Sayfa
METAR-TAF:

METAR-TAF

Havaalanları :

Tulça, Romanya

Enlem: 45-11N, Boylam: 028-49E, yükseklik: 4 m

Güncel hava durumu gözlemi

Rapor saat 01:30 UTC de 26 dakika önce yapıldı.
Sakin rüzgar
Sıcaklık 20°C
Nem 83%
Basınç 1011 hPa
Görüş mesafesi: 9000 m

METAR: LRTC 200130Z AUTO 00000KT 9000 NCD 20/17 Q1011

Saat: 04:56 (01:56 UTC)

Tahmin

Rapor saat 14:00 UTC de 11 saat ve 56 dakika önce yapıldı.
Ayın 19'si saat 15 UTC'den ayın 19'si saat 24 UTC'ye kadar geçerli Tahmin
Rüzgar batı/kuzeybatıdan 14 kt
Görüş mesafesi 10 km veya daha fazla
4000 ft yükseklikte parçalı bulutlu, Kümülonimbus.
Geçici
ayın 19'si saat 15 UTC'den ayın 19'si saat 17 UTC'ye kadar
Görüş mesafesi: 5000 m
gök gürültülü fırtına, hafif yağmur
Dönüşüyor
ayın 19'si saat 16 UTC'den ayın 19'si saat 18 UTC'ye kadar
Rüzgar kuzeydan 8 kt

TAF: LRTC 191400Z 1915/1924 29014KT 9999 SCT040CB TEMPO 1915/1917 5000 -TSRA BECMG 1916/1918 36008KT NSC

4.000'den fazla havaalanı için hava durumu gözlemleri ve tahminleri (METAR ve TAF raporları).

Kullanılabilir istasyonlar harita üzerinde sarı ve kırmızı noktalarla gösterilir.

İstasyonun adını görmek için fareyi noktanın üzerinde gezdirin.

Sonrasında hava gözlem ve tahminlerini görmek için tıklayın.

Haritayı değiştirmek için: yaklaştırmak için siyah artı işaretli yeşil düğmeye ve uzaklaştırmak için de eksi işaretli düğmeye hızla tıklayın; bitişik haritalar için yeşil okları kullanın.


METAR-TAF: